Time;durP1;ratioP1;P1;durP2;ratioP2;P2;SDS_P1;SDS_P2;PMS_P1;PMS_P2;Temp;Humidity;BMP_temperature;BMP_pressure;BME280_temperature;BME280_humidity;BME280_pressure;Samples;Min_cycle;Max_cycle;Signal;HPM_P1;HPM_P2
2020/12/09 00:01:21;;;;;;;33.10;17.73;;;1.10;99.90;;;;;;6106591;23;20057;-85
2020/12/09 00:03:46;;;;;;;38.83;18.75;;;1.10;99.90;;;;;;6137055;23;20065;-86
2020/12/09 00:06:12;;;;;;;33.45;16.83;;;1.10;99.90;;;;;;6109237;23;20018;-87
2020/12/09 00:08:38;;;;;;;38.80;18.25;;;1.10;99.90;;;;;;6133207;23;20339;-85
2020/12/09 00:11:06;;;;;;;36.95;19.23;;;1.10;99.90;;;;;;6131895;23;20002;-87
2020/12/09 00:13:32;;;;;;;41.20;18.95;;;1.00;99.90;;;;;;6134920;23;19998;-85
2020/12/09 00:15:58;;;;;;;36.97;18.08;;;1.00;99.90;;;;;;6133297;23;20065;-85
2020/12/09 00:18:23;;;;;;;37.75;19.13;;;1.10;99.90;;;;;;6133246;23;20431;-85
2020/12/09 00:20:49;;;;;;;37.50;18.75;;;1.10;99.90;;;;;;6108231;23;20010;-86
2020/12/09 00:23:14;;;;;;;37.80;18.98;;;1.00;99.90;;;;;;6107747;23;20442;-87
2020/12/09 00:25:40;;;;;;;34.65;17.48;;;1.10;99.90;;;;;;6114162;23;20054;-87
2020/12/09 00:28:06;;;;;;;34.10;17.58;;;1.00;99.90;;;;;;6114842;23;20006;-86
2020/12/09 00:30:32;;;;;;;32.38;17.88;;;1.00;99.90;;;;;;6106427;23;20403;-85
2020/12/09 00:32:57;;;;;;;35.22;18.00;;;1.00;99.90;;;;;;6107070;23;20085;-85
2020/12/09 00:35:23;;;;;;;33.75;17.73;;;1.10;99.90;;;;;;6105741;23;20006;-86
2020/12/09 00:37:49;;;;;;;31.85;16.08;;;1.10;99.90;;;;;;6106454;23;20087;-86
2020/12/09 00:40:14;;;;;;;38.92;18.63;;;1.00;99.90;;;;;;6107959;23;20017;-85
2020/12/09 00:42:40;;;;;;;33.05;17.52;;;1.00;99.90;;;;;;6107317;23;20068;-87
2020/12/09 00:45:06;;;;;;;39.63;20.15;;;1.00;99.90;;;;;;6132444;23;20005;-86
2020/12/09 00:47:32;;;;;;;34.60;19.33;;;1.00;99.90;;;;;;6108116;23;20017;-85
2020/12/09 00:52:35;;;;;;;35.95;19.08;;;1.00;99.90;;;;;;6142688;23;20006;-85
2020/12/09 00:55:00;;;;;;;34.47;18.70;;;1.00;99.90;;;;;;6109883;23;20008;-85
2020/12/09 00:57:26;;;;;;;33.92;18.38;;;1.00;99.90;;;;;;6134445;23;20272;-85
2020/12/09 00:59:52;;;;;;;42.22;20.15;;;1.00;99.90;;;;;;6107767;23;20002;-86
2020/12/09 01:02:22;;;;;;;37.55;19.30;;;1.00;99.90;;;;;;6109098;23;20022;-85
2020/12/09 01:04:51;;;;;;;32.05;17.17;;;1.00;99.90;;;;;;6105777;23;20017;-85
2020/12/09 01:07:22;;;;;;;36.58;16.83;;;0.90;99.90;;;;;;6106081;23;20037;-85
2020/12/09 01:10:00;;;;;;;;;;;;;;;;;;;;;
2020/12/09 01:12:26;;;;;;;38.58;19.10;;;0.90;99.90;;;;;;6131936;23;20036;-86
2020/12/09 01:14:52;;;;;;;32.58;17.50;;;0.90;99.90;;;;;;6103486;23;20002;-86
2020/12/09 01:17:21;;;;;;;36.90;19.60;;;0.90;99.90;;;;;;6104947;23;20065;-85
2020/12/09 01:19:54;;;;;;;36.10;18.30;;;1.00;99.90;;;;;;6105158;23;20084;-86
2020/12/09 01:22:22;;;;;;;37.40;19.00;;;0.90;99.90;;;;;;6106308;23;20030;-85
2020/12/09 01:24:50;;;;;;;35.80;18.58;;;0.90;99.90;;;;;;6106061;23;20025;-86
2020/12/09 01:27:22;;;;;;;35.92;19.60;;;0.90;99.90;;;;;;6106143;23;20010;-85
2020/12/09 01:29:51;;;;;;;39.20;19.38;;;1.00;99.90;;;;;;6105351;23;20003;-87
2020/12/09 01:32:24;;;;;;;39.55;19.02;;;0.90;99.90;;;;;;6106397;23;20438;-85
2020/12/09 01:34:55;;;;;;;40.03;19.85;;;0.90;99.90;;;;;;6105421;23;20001;-85
2020/12/09 01:37:20;;;;;;;27.63;15.38;;;1.00;99.90;;;;;;6104588;23;20135;-85
2020/12/09 01:39:51;;;;;;;28.95;14.73;;;1.00;99.90;;;;;;6106176;23;20120;-86
2020/12/09 01:42:17;;;;;;;33.08;17.00;;;1.00;99.90;;;;;;6106443;23;20010;-86
2020/12/09 01:44:43;;;;;;;31.55;16.33;;;1.00;99.90;;;;;;6112253;23;19997;-88
2020/12/09 01:47:09;;;;;;;35.97;18.30;;;0.90;99.90;;;;;;6125190;23;20025;-87
2020/12/09 01:49:42;;;;;;;29.73;15.38;;;1.00;99.90;;;;;;6143728;23;20438;-84
2020/12/09 01:52:08;;;;;;;30.38;16.95;;;1.00;99.90;;;;;;6106533;23;20129;-85
2020/12/09 01:54:34;;;;;;;26.80;13.85;;;1.10;99.90;;;;;;6114563;23;20009;-84
2020/12/09 01:57:12;;;;;;;24.10;13.98;;;1.10;99.90;;;;;;6110066;23;20016;-85
2020/12/09 01:59:41;;;;;;;29.95;16.02;;;1.20;99.90;;;;;;6144299;23;20021;-87
2020/12/09 02:02:13;;;;;;;29.45;16.10;;;1.30;99.90;;;;;;6125482;23;19994;-86
2020/12/09 02:04:42;;;;;;;;;;;1.30;99.90;;;;;;6105005;23;20016;-85
2020/12/09 02:07:10;;;;;;;32.22;16.73;;;1.40;99.90;;;;;;6103020;23;19911;-87
2020/12/09 02:09:36;;;;;;;31.45;16.38;;;1.40;99.90;;;;;;6104283;23;20018;-85
2020/12/09 02:12:04;;;;;;;33.67;18.08;;;1.40;99.90;;;;;;6103085;23;20013;-85
2020/12/09 02:14:32;;;;;;;32.22;17.50;;;1.50;99.90;;;;;;6129007;23;20077;-85
2020/12/09 02:17:01;;;;;;;33.90;19.02;;;1.50;99.90;;;;;;6129952;23;20005;-85
2020/12/09 02:19:35;;;;;;;35.80;18.05;;;1.50;99.90;;;;;;6101974;23;20006;-86
2020/12/09 02:22:13;;;;;;;37.15;19.80;;;1.50;99.90;;;;;;6103543;23;20002;-85
2020/12/09 02:24:41;;;;;;;33.13;17.98;;;1.60;99.90;;;;;;6105107;23;20006;-85
2020/12/09 02:27:10;;;;;;;33.28;17.60;;;1.60;99.90;;;;;;6104310;23;20006;-86
2020/12/09 02:29:43;;;;;;;32.00;18.05;;;1.60;99.90;;;;;;6130537;23;20002;-87
2020/12/09 02:32:12;;;;;;;31.13;16.85;;;1.60;99.90;;;;;;6105186;23;20006;-85
2020/12/09 02:34:43;;;;;;;30.83;16.73;;;1.60;99.90;;;;;;6129480;23;20021;-85
2020/12/09 02:37:11;;;;;;;33.50;18.85;;;1.70;99.90;;;;;;6104677;23;20040;-85
2020/12/09 02:39:38;;;;;;;33.13;19.00;;;1.70;99.90;;;;;;6129187;23;20049;-85
2020/12/09 02:42:04;;;;;;;29.23;16.65;;;1.70;99.90;;;;;;6127391;23;20442;-85
2020/12/09 02:44:30;;;;;;;34.03;16.98;;;1.80;99.90;;;;;;6103821;23;20036;-87
2020/12/09 02:46:59;;;;;;;33.35;18.20;;;1.80;99.70;;;;;;6103972;23;20010;-86
2020/12/09 02:49:25;;;;;;;33.08;18.90;;;1.80;99.70;;;;;;6104846;23;20002;-85
2020/12/09 02:51:51;;;;;;;30.67;17.58;;;1.80;99.50;;;;;;6111711;23;19998;-85
2020/12/09 02:54:17;;;;;;;35.85;19.75;;;1.90;99.70;;;;;;6107158;23;20053;-86
2020/12/09 02:56:43;;;;;;;29.02;16.90;;;1.90;99.30;;;;;;6107587;23;20005;-85
2020/12/09 02:59:14;;;;;;;34.92;18.38;;;1.90;99.40;;;;;;6141713;23;19990;-88
2020/12/09 03:01:42;;;;;;;26.90;15.93;;;1.90;99.20;;;;;;6125748;23;20001;-89
2020/12/09 03:04:08;;;;;;;32.78;18.65;;;1.80;99.30;;;;;;6125568;23;19998;-89
2020/12/09 03:06:34;;;;;;;28.45;15.80;;;1.80;99.40;;;;;;6125669;23;20006;-87
2020/12/09 03:09:00;;;;;;;28.40;16.98;;;1.90;99.40;;;;;;6125512;23;20115;-88
2020/12/09 03:11:26;;;;;;;30.02;17.70;;;1.90;99.40;;;;;;6125672;23;20017;-90
2020/12/09 03:13:52;;;;;;;28.85;17.40;;;1.90;99.50;;;;;;6125449;23;20010;-88
2020/12/09 03:16:20;;;;;;;27.83;16.42;;;1.90;99.50;;;;;;6119255;23;20017;-87
2020/12/09 03:18:45;;;;;;;30.90;17.85;;;1.90;99.50;;;;;;6134121;23;20025;-86
2020/12/09 03:21:11;;;;;;;32.20;19.25;;;1.90;99.10;;;;;;6109895;23;20018;-86
2020/12/09 03:23:39;;;;;;;31.40;17.35;;;1.90;99.20;;;;;;6131912;23;20045;-86
2020/12/09 03:26:07;;;;;;;28.92;15.80;;;1.90;99.20;;;;;;6105362;23;20006;-86
2020/12/09 03:28:35;;;;;;;33.58;19.33;;;1.90;99.30;;;;;;6105580;23;20002;-85
2020/12/09 03:31:02;;;;;;;31.48;19.27;;;1.80;99.50;;;;;;6133052;23;19998;-86
2020/12/09 03:33:28;;;;;;;31.08;17.77;;;1.80;99.50;;;;;;6136642;23;19994;-86
2020/12/09 03:35:54;;;;;;;30.63;16.58;;;1.90;99.70;;;;;;6104921;23;20129;-86
2020/12/09 03:38:22;;;;;;;31.88;17.95;;;1.80;99.40;;;;;;6125330;23;20006;-88
2020/12/09 03:40:51;;;;;;;32.80;19.30;;;1.80;99.50;;;;;;6127277;23;20049;-88
2020/12/09 03:43:22;;;;;;;32.65;18.80;;;1.80;99.60;;;;;;6105093;23;20089;-86
2020/12/09 03:45:52;;;;;;;31.58;18.00;;;1.80;99.70;;;;;;6102526;23;20021;-86
2020/12/09 03:48:20;;;;;;;33.03;18.40;;;1.80;99.80;;;;;;6104227;23;20029;-86
2020/12/09 03:50:46;;;;;;;34.70;18.50;;;1.80;99.80;;;;;;6102391;23;20033;-86
2020/12/09 03:53:12;;;;;;;34.38;19.38;;;1.80;99.90;;;;;;6102408;23;20002;-86
2020/12/09 03:55:38;;;;;;;32.40;19.33;;;1.80;99.90;;;;;;6104449;23;20034;-87
2020/12/09 03:58:04;;;;;;;35.08;19.75;;;1.80;99.90;;;;;;6128540;23;20006;-86
2020/12/09 04:00:32;;;;;;;33.88;18.77;;;1.80;99.90;;;;;;6104162;23;20105;-86
2020/12/09 04:02:58;;;;;;;32.22;18.67;;;1.80;99.90;;;;;;6103777;23;20129;-86
2020/12/09 04:05:24;;;;;;;31.67;19.42;;;1.80;99.90;;;;;;6102698;23;20002;-86
2020/12/09 04:07:52;;;;;;;35.70;19.60;;;1.80;99.70;;;;;;6102312;23;20244;-85
2020/12/09 04:10:18;;;;;;;34.25;18.77;;;1.80;99.70;;;;;;6104746;23;20033;-86
2020/12/09 04:12:44;;;;;;;30.17;17.52;;;1.80;99.90;;;;;;6105360;23;20438;-86
2020/12/09 04:15:13;;;;;;;32.42;17.85;;;1.80;99.90;;;;;;6106219;23;20002;-86
2020/12/09 04:17:39;;;;;;;32.33;17.63;;;1.80;99.90;;;;;;6106127;23;20002;-85
2020/12/09 04:20:13;;;;;;;37.25;20.13;;;1.90;99.90;;;;;;6105490;23;20006;-86
2020/12/09 04:22:41;;;;;;;33.40;18.90;;;1.90;99.50;;;;;;6106909;23;20005;-86
2020/12/09 04:25:07;;;;;;;31.58;18.50;;;1.90;99.70;;;;;;6104698;23;20025;-86
2020/12/09 04:27:33;;;;;;;35.58;19.40;;;1.80;99.70;;;;;;6130609;23;20005;-86
2020/12/09 04:30:01;;;;;;;35.80;20.63;;;1.90;99.80;;;;;;6107573;23;20041;-86
2020/12/09 04:32:31;;;;;;;34.35;18.65;;;1.80;99.70;;;;;;6105546;23;20022;-86
2020/12/09 04:35:03;;;;;;;34.40;18.92;;;1.80;99.70;;;;;;6130280;23;20415;-86
2020/12/09 04:37:29;;;;;;;;;;;1.80;99.90;;;;;;6120192;23;20435;-86
2020/12/09 04:40:06;;;;;;;34.78;19.00;;;1.90;99.90;;;;;;6126274;23;19913;-89
2020/12/09 04:42:32;;;;;;;34.05;19.33;;;1.80;99.90;;;;;;6125751;23;20006;-86
2020/12/09 04:44:58;;;;;;;34.90;19.83;;;1.90;99.90;;;;;;6148414;23;20433;-87
2020/12/09 04:47:29;;;;;;;36.47;19.90;;;1.90;99.80;;;;;;6113678;23;20010;-86
2020/12/09 04:50:11;;;;;;;29.55;17.20;;;1.90;99.70;;;;;;6115383;23;20486;-87
2020/12/09 04:52:42;;;;;;;30.67;17.52;;;1.90;99.80;;;;;;6124468;23;20024;-89
2020/12/09 04:55:25;;;;;;;32.22;18.10;;;1.90;99.90;;;;;;6149198;23;20062;-85
2020/12/09 04:58:06;;;;;;;29.40;16.65;;;2.00;99.80;;;;;;6110878;23;20002;-86
2020/12/09 05:00:43;;;;;;;33.55;18.70;;;2.00;99.70;;;;;;6106930;23;20085;-87
2020/12/09 05:03:15;;;;;;;28.23;15.38;;;2.00;99.60;;;;;;6106544;23;20016;-85
2020/12/09 05:05:41;;;;;;;26.03;14.30;;;2.10;99.70;;;;;;6107100;23;20010;-86
2020/12/09 05:08:21;;;;;;;32.83;17.65;;;2.10;99.70;;;;;;6131543;23;20002;-87
2020/12/09 05:10:52;;;;;;;36.28;19.48;;;2.10;99.40;;;;;;6102998;23;20438;-85
2020/12/09 05:13:29;;;;;;;31.00;17.48;;;2.00;99.30;;;;;;6104900;23;20057;-85
2020/12/09 05:16:02;;;;;;;34.53;18.33;;;2.00;99.50;;;;;;6131978;23;20005;-86
2020/12/09 05:18:41;;;;;;;31.55;17.25;;;2.00;99.40;;;;;;6103862;23;20434;-86
2020/12/09 05:21:14;;;;;;;33.28;18.25;;;2.00;99.60;;;;;;6106182;23;20006;-86
2020/12/09 05:23:45;;;;;;;33.75;16.33;;;2.00;99.50;;;;;;6130251;23;20017;-86
2020/12/09 05:26:18;;;;;;;36.20;20.30;;;2.10;99.60;;;;;;6131673;23;19997;-86
2020/12/09 05:28:43;;;;;;;28.83;17.13;;;2.10;99.60;;;;;;6103562;23;20321;-85
2020/12/09 05:31:19;;;;;;;37.22;20.50;;;2.10;99.60;;;;;;6104082;23;20009;-86
2020/12/09 05:33:44;;;;;;;38.70;19.73;;;2.10;99.50;;;;;;6105565;23;20462;-87
2020/12/09 05:36:13;;;;;;;38.63;19.48;;;2.10;99.60;;;;;;6104621;23;20014;-86
2020/12/09 05:38:41;;;;;;;34.25;18.10;;;2.10;99.40;;;;;;6104090;23;19994;-85
2020/12/09 05:41:12;;;;;;;35.28;18.08;;;2.10;99.50;;;;;;6104571;23;20079;-85
2020/12/09 05:43:45;;;;;;;41.08;20.05;;;2.00;99.90;;;;;;6103798;23;20319;-85
2020/12/09 05:46:13;;;;;;;40.00;20.23;;;2.10;99.80;;;;;;6129199;23;20012;-86
2020/12/09 05:48:39;;;;;;;44.03;21.92;;;2.00;99.90;;;;;;6103028;23;20002;-85
2020/12/09 05:51:06;;;;;;;39.58;20.90;;;2.00;99.90;;;;;;6127848;23;20013;-86
2020/12/09 05:53:34;;;;;;;35.22;18.90;;;1.90;99.90;;;;;;6102036;23;20431;-87
2020/12/09 05:56:11;;;;;;;40.78;21.50;;;1.90;99.90;;;;;;6106411;23;20069;-86
2020/12/09 05:58:41;;;;;;;45.38;22.48;;;1.90;99.90;;;;;;6107192;23;20006;-86
2020/12/09 06:01:09;;;;;;;38.58;20.83;;;1.90;99.90;;;;;;6108263;23;20013;-87
2020/12/09 06:03:36;;;;;;;42.53;21.13;;;1.80;99.90;;;;;;6107946;23;20010;-86
2020/12/09 06:06:23;;;;;;;42.13;21.08;;;1.80;99.90;;;;;;6108179;23;20006;-86
2020/12/09 06:08:56;;;;;;;46.28;22.90;;;1.90;99.90;;;;;;6121667;23;20005;-87
2020/12/09 06:11:22;;;;;;;;;;;1.80;99.90;;;;;;6121512;23;20009;-87
2020/12/09 06:14:01;;;;;;;44.97;21.58;;;1.80;99.90;;;;;;6120833;23;19924;-86
2020/12/09 06:16:29;;;;;;;45.45;22.67;;;1.80;99.90;;;;;;6119863;23;20032;-87
2020/12/09 06:19:05;;;;;;;46.78;23.60;;;1.70;99.90;;;;;;6103617;23;20010;-86
2020/12/09 06:21:41;;;;;;;45.70;23.65;;;1.70;99.90;;;;;;6102885;23;20473;-86
2020/12/09 06:24:07;;;;;;;51.22;23.83;;;1.60;99.90;;;;;;6102232;23;20378;-86
2020/12/09 06:26:33;;;;;;;45.75;22.88;;;1.60;99.90;;;;;;6100532;23;20013;-87
2020/12/09 06:29:02;;;;;;;44.45;20.73;;;1.60;99.90;;;;;;6100869;23;20025;-87
2020/12/09 06:31:33;;;;;;;50.78;25.10;;;1.60;99.90;;;;;;6102927;23;20057;-85
2020/12/09 06:34:02;;;;;;;46.03;21.77;;;1.60;99.90;;;;;;6105588;23;20437;-86
2020/12/09 06:37:00;;;;;;;49.80;22.75;;;1.50;99.90;;;;;;6108067;23;20006;-86
2020/12/09 06:40:21;;;;;;;46.80;21.88;;;1.50;99.90;;;;;;6103170;23;20010;-86
2020/12/09 06:43:05;;;;;;;45.35;22.05;;;;;;;;;;6056917;23;20089;-86
2020/12/09 06:45:47;;;;;;;47.15;22.10;;;1.60;99.90;;;;;;6127970;23;20010;-86
2020/12/09 06:48:16;;;;;;;43.38;21.58;;;1.60;99.90;;;;;;6100133;23;20005;-86
2020/12/09 06:50:43;;;;;;;46.33;23.20;;;1.50;99.90;;;;;;6101208;23;19986;-86
2020/12/09 06:53:12;;;;;;;47.45;22.55;;;1.60;99.90;;;;;;6104560;23;20078;-87
2020/12/09 06:55:54;;;;;;;42.55;21.38;;;1.60;99.90;;;;;;6119174;23;19994;-87
2020/12/09 06:58:32;;;;;;;42.40;20.37;;;1.60;99.90;;;;;;6125614;23;20002;-87
2020/12/09 07:01:12;;;;;;;48.95;23.30;;;1.60;99.90;;;;;;6112623;23;20308;-86
2020/12/09 07:04:06;;;;;;;;;;;;;;;;;;;;;
2020/12/09 07:06:45;;;;;;;44.20;20.42;;;1.60;99.90;;;;;;6129668;23;20088;-87
2020/12/09 07:09:34;;;;;;;48.80;23.25;;;1.60;99.90;;;;;;6101676;23;20002;-85
2020/12/09 07:12:06;;;;;;;45.13;21.92;;;1.60;99.90;;;;;;6103358;23;20037;-85
2020/12/09 07:14:50;;;;;;;46.72;22.23;;;1.60;99.90;;;;;;6128444;23;20283;-85
2020/12/09 07:17:54;;;;;;;44.72;22.73;;;1.60;99.90;;;;;;6102725;23;20006;-85
2020/12/09 07:20:22;;;;;;;46.92;21.88;;;1.60;99.90;;;;;;6102857;23;20042;-85
2020/12/09 07:22:50;;;;;;;47.55;22.17;;;1.60;99.90;;;;;;6102350;23;20006;-86
2020/12/09 07:25:22;;;;;;;43.03;21.15;;;1.60;99.90;;;;;;6129955;23;20013;-85
2020/12/09 07:27:49;;;;;;;43.40;20.33;;;1.50;99.90;;;;;;6104143;23;20390;-86
2020/12/09 07:30:16;;;;;;;41.38;22.17;;;1.60;99.90;;;;;;6114342;23;20002;-85
2020/12/09 07:32:42;;;;;;;45.50;21.45;;;1.50;99.90;;;;;;6124798;23;20081;-87
2020/12/09 07:35:14;;;;;;;52.75;25.23;;;1.50;99.90;;;;;;6113396;23;20035;-86
2020/12/09 07:37:44;;;;;;;47.83;23.63;;;1.60;99.90;;;;;;6101109;23;20006;-85
2020/12/09 07:40:23;;;;;;;52.83;24.58;;;1.50;99.90;;;;;;6104569;23;20010;-85
2020/12/09 07:43:11;;;;;;;46.97;21.50;;;1.50;99.90;;;;;;6150570;23;19990;-85
2020/12/09 07:45:41;;;;;;;46.90;21.85;;;1.50;99.90;;;;;;6144363;23;20079;-86
2020/12/09 07:48:12;;;;;;;53.28;24.67;;;1.50;99.90;;;;;;6128768;23;20037;-86
2020/12/09 07:50:42;;;;;;;49.85;23.73;;;1.50;99.90;;;;;;6129538;23;19998;-86
2020/12/09 07:53:12;;;;;;;46.88;22.52;;;1.50;99.90;;;;;;6102461;23;20005;-85
2020/12/09 07:55:38;;;;;;;48.75;22.48;;;1.60;99.90;;;;;;6129234;23;20006;-86
2020/12/09 07:58:14;;;;;;;45.67;22.23;;;1.60;99.90;;;;;;6101364;23;20101;-85
2020/12/09 08:00:42;;;;;;;52.72;23.73;;;1.60;99.90;;;;;;6103336;23;20016;-85
2020/12/09 08:03:22;;;;;;;51.03;24.35;;;1.60;99.90;;;;;;6128387;23;20057;-86
2020/12/09 08:05:49;;;;;;;46.97;24.23;;;1.60;99.90;;;;;;6128596;23;20006;-86
2020/12/09 08:08:17;;;;;;;44.67;21.45;;;1.70;99.90;;;;;;6103472;23;20217;-86
2020/12/09 08:10:46;;;;;;;52.95;23.98;;;1.70;99.90;;;;;;6126163;23;20045;-86
2020/12/09 08:13:23;;;;;;;50.28;22.60;;;1.70;99.90;;;;;;6103068;23;19998;-86
2020/12/09 08:16:08;;;;;;;48.58;24.23;;;1.70;99.90;;;;;;6129660;23;20002;-86
2020/12/09 08:18:35;;;;;;;45.65;20.95;;;1.70;99.90;;;;;;6126531;23;20040;-87
2020/12/09 08:21:04;;;;;;;52.67;24.80;;;1.70;99.90;;;;;;6102697;23;20339;-87
2020/12/09 08:23:45;;;;;;;49.28;23.67;;;1.70;99.90;;;;;;6103233;23;20057;-87
2020/12/09 08:26:30;;;;;;;49.90;23.98;;;1.70;99.90;;;;;;6106328;23;20002;-87
2020/12/09 08:28:59;;;;;;;50.53;23.58;;;1.70;99.90;;;;;;6105163;23;20012;-87
2020/12/09 08:31:26;;;;;;;57.78;26.98;;;1.60;99.90;;;;;;6106799;23;20013;-87
2020/12/09 08:33:59;;;;;;;58.55;25.30;;;1.60;99.90;;;;;;6106849;23;20024;-87
2020/12/09 08:36:26;;;;;;;54.70;25.27;;;1.60;99.90;;;;;;6105904;23;20320;-88
2020/12/09 08:39:06;;;;;;;47.63;20.88;;;1.50;99.90;;;;;;6104253;23;20016;-87
2020/12/09 08:42:02;;;;;;;51.40;22.65;;;1.60;99.90;;;;;;6106016;23;20022;-87
2020/12/09 08:44:35;;;;;;;48.78;22.58;;;1.60;99.90;;;;;;6127239;23;20065;-87
2020/12/09 08:47:02;;;;;;;58.80;26.23;;;1.50;99.90;;;;;;6129635;23;20085;-87
2020/12/09 08:49:35;;;;;;;54.17;22.52;;;1.60;99.90;;;;;;6129312;23;20006;-87
2020/12/09 08:52:27;;;;;;;54.17;23.52;;;1.60;99.90;;;;;;6104789;23;20002;-86
2020/12/09 08:55:23;;;;;;;57.53;26.25;;;1.60;99.90;;;;;;6080951;23;20089;-86
2020/12/09 08:57:55;;;;;;;49.45;22.13;;;1.70;99.90;;;;;;6104115;23;20450;-86
2020/12/09 09:00:23;;;;;;;66.70;27.55;;;1.70;99.90;;;;;;6104434;23;20476;-82
2020/12/09 09:02:52;;;;;;;47.72;20.95;;;1.70;99.90;;;;;;6101672;23;20005;-86
2020/12/09 09:05:48;;;;;;;49.65;20.58;;;1.70;99.90;;;;;;6104020;23;20009;-87
2020/12/09 09:08:20;;;;;;;55.17;27.27;;;1.80;99.90;;;;;;6128124;23;20363;-87
2020/12/09 09:11:16;;;;;;;58.60;25.95;;;1.80;99.90;;;;;;6108532;23;20002;-86
2020/12/09 09:14:07;;;;;;;55.67;23.83;;;1.80;99.90;;;;;;6131368;23;20025;-86
2020/12/09 09:17:24;;;;;;;46.78;21.88;;;1.90;99.90;;;;;;6089809;23;20002;-85
2020/12/09 09:20:16;;;;;;;52.10;23.10;;;1.90;99.90;;;;;;6131927;23;20029;-86
2020/12/09 09:26:25;;;;;;;53.25;23.92;;;1.70;99.90;;;;;;6123329;23;20002;-86
2020/12/09 09:31:45;;;;;;;57.55;25.20;;;1.80;99.90;;;;;;6129589;23;20005;-86
2020/12/09 09:34:11;;;;;;;54.20;24.88;;;1.70;99.90;;;;;;6110813;23;20422;-87
2020/12/09 09:36:49;;;;;;;47.80;22.20;;;1.60;99.90;;;;;;6109292;23;20082;-87
2020/12/09 09:39:20;;;;;;;61.05;27.67;;;1.60;99.90;;;;;;6110128;23;20315;-86
2020/12/09 09:41:48;;;;;;;62.40;28.05;;;1.60;99.90;;;;;;6110380;23;20010;-86
2020/12/09 09:47:44;;;;;;;52.08;22.42;;;1.50;99.90;;;;;;6132307;23;20006;-87
2020/12/09 09:50:41;;;;;;;60.40;27.98;;;1.60;99.90;;;;;;6102631;23;20013;-86
2020/12/09 09:53:18;;;;;;;65.53;25.85;;;1.70;99.90;;;;;;5961275;23;20008;-87
2020/12/09 09:55:49;;;;;;;52.40;22.73;;;1.70;99.90;;;;;;6128626;23;20010;-87
2020/12/09 09:58:17;;;;;;;68.63;27.35;;;1.70;99.90;;;;;;6104906;23;20057;-88
2020/12/09 10:00:49;;;;;;;57.70;26.00;;;1.80;99.90;;;;;;6109235;23;20423;-88
2020/12/09 10:03:15;;;;;;;69.00;30.00;;;1.80;99.90;;;;;;6118911;23;19993;-89
2020/12/09 10:05:52;;;;;;;73.93;29.27;;;1.80;99.90;;;;;;6125985;23;20012;-88
2020/12/09 10:08:19;;;;;;;49.00;22.83;;;1.80;99.90;;;;;;6110950;23;20006;-87
2020/12/09 10:10:50;;;;;;;49.90;21.98;;;1.90;99.90;;;;;;6103771;23;20013;-87
2020/12/09 10:13:19;;;;;;;55.28;23.92;;;1.90;99.90;;;;;;6103199;23;20367;-87
2020/12/09 10:15:48;;;;;;;47.17;20.88;;;1.90;99.90;;;;;;6115344;23;19990;-90
2020/12/09 10:18:23;;;;;;;50.42;22.73;;;1.90;99.90;;;;;;6125010;23;19990;-88
2020/12/09 10:21:11;;;;;;;52.22;24.35;;;1.90;99.90;;;;;;6113571;23;20033;-87
2020/12/09 10:24:00;;;;;;;57.15;25.92;;;1.70;99.90;;;;;;6107120;23;20002;-88
2020/12/09 10:26:38;;;;;;;64.95;28.00;;;1.70;99.90;;;;;;6094877;23;20010;-92
2020/12/09 10:29:15;;;;;;;59.03;25.63;;;1.70;99.90;;;;;;6125764;23;20001;-91
2020/12/09 10:31:50;;;;;;;48.03;20.75;;;1.70;99.90;;;;;;6104488;23;20002;-87
2020/12/09 10:34:18;;;;;;;53.30;24.70;;;1.70;99.90;;;;;;6103653;23;20542;-86
2020/12/09 10:37:04;;;;;;;;;;;;;;;;;;;;;
2020/12/09 10:39:38;;;;;;;51.97;24.20;;;1.80;99.90;;;;;;6131024;23;20105;-86
2020/12/09 10:42:11;;;;;;;53.50;25.10;;;1.70;99.90;;;;;;6105263;23;20002;-85
2020/12/09 10:44:41;;;;;;;57.00;25.23;;;1.60;99.90;;;;;;6105168;23;20002;-86
2020/12/09 10:47:18;;;;;;;54.72;25.30;;;1.60;99.90;;;;;;6104173;23;20092;-88
2020/12/09 10:50:00;;;;;;;49.80;22.65;;;1.70;99.90;;;;;;6104783;23;20319;-86
2020/12/09 10:52:28;;;;;;;50.90;22.02;;;1.70;99.90;;;;;;6105136;23;20002;-87
2020/12/09 10:55:07;;;;;;;43.25;19.88;;;1.70;99.90;;;;;;6112103;23;20058;-86
2020/12/09 10:58:07;;;;;;;42.60;21.85;;;1.70;99.90;;;;;;6107256;23;20002;-86
2020/12/09 11:00:47;;;;;;;50.30;22.25;;;1.70;99.90;;;;;;6106378;23;20073;-88
2020/12/09 11:03:18;;;;;;;43.08;20.85;;;1.80;99.90;;;;;;6104938;23;20026;-87
2020/12/09 11:06:02;;;;;;;45.40;21.30;;;1.70;99.90;;;;;;6104003;23;20010;-88
2020/12/09 11:09:10;;;;;;;43.95;20.98;;;1.80;99.90;;;;;;6130085;23;20005;-86
2020/12/09 11:12:00;;;;;;;44.47;21.35;;;1.80;99.90;;;;;;6096020;23;20026;-87
2020/12/09 11:14:52;;;;;;;38.88;19.02;;;1.70;99.90;;;;;;6105142;23;20002;-87
2020/12/09 11:17:21;;;;;;;46.23;20.17;;;1.70;99.90;;;;;;6102876;23;20006;-87
2020/12/09 11:20:12;;;;;;;;;;;;;;;;;;;;;
2020/12/09 11:22:39;;;;;;;37.67;17.63;;;1.80;99.90;;;;;;6130063;23;20037;-87
2020/12/09 11:25:07;;;;;;;43.63;20.75;;;1.80;99.90;;;;;;6104143;23;20109;-86
2020/12/09 11:27:48;;;;;;;37.97;20.25;;;1.70;99.90;;;;;;6104067;23;20006;-86
2020/12/09 11:30:19;;;;;;;30.30;16.38;;;1.80;99.90;;;;;;6129501;23;19994;-85
2020/12/09 11:32:55;;;;;;;41.45;19.75;;;1.80;99.90;;;;;;6104603;23;20006;-86
2020/12/09 11:35:57;;;;;;;;;;;;;;;;;;;;;
2020/12/09 11:38:23;;;;;;;39.03;20.25;;;1.80;99.90;;;;;;6131504;23;20040;-86
2020/12/09 11:40:52;;;;;;;40.70;21.20;;;1.80;99.90;;;;;;6110622;23;20080;-86
2020/12/09 11:43:18;;;;;;;34.97;16.88;;;1.80;99.90;;;;;;6118366;23;19998;-88
2020/12/09 11:46:00;;;;;;;40.50;19.58;;;1.80;99.90;;;;;;6118365;23;20865;-86
2020/12/09 11:48:26;;;;;;;34.70;18.02;;;1.80;99.90;;;;;;6115470;23;20010;-86
2020/12/09 11:50:55;;;;;;;30.00;17.27;;;1.80;99.90;;;;;;6107852;23;20081;-86
2020/12/09 11:53:24;;;;;;;37.60;19.50;;;1.80;99.90;;;;;;6108707;23;20029;-85
2020/12/09 11:55:49;;;;;;;43.22;19.73;;;1.80;99.90;;;;;;6112106;23;20034;-86
2020/12/09 11:58:17;;;;;;;37.35;19.45;;;1.80;99.90;;;;;;6132035;23;20422;-85
2020/12/09 12:00:43;;;;;;;38.90;20.05;;;1.80;99.90;;;;;;6108365;23;20006;-86
2020/12/09 12:03:08;;;;;;;37.35;18.65;;;1.80;99.90;;;;;;6108489;23;20013;-86
2020/12/09 12:05:40;;;;;;;38.92;18.90;;;1.80;99.90;;;;;;6134306;23;20010;-86
2020/12/09 12:08:06;;;;;;;33.00;16.40;;;1.90;99.90;;;;;;6133256;23;20398;-86
2020/12/09 12:10:33;;;;;;;37.45;20.05;;;1.90;99.90;;;;;;6107031;23;20002;-86
2020/12/09 12:12:59;;;;;;;36.97;18.48;;;1.90;99.90;;;;;;6105636;23;20002;-86
2020/12/09 12:15:25;;;;;;;36.92;18.70;;;1.80;99.90;;;;;;6132571;23;19998;-86
2020/12/09 12:17:50;;;;;;;38.28;19.50;;;1.80;99.90;;;;;;6131437;23;20002;-86
2020/12/09 12:20:16;;;;;;;65.82;32.53;;;1.80;99.90;;;;;;6104982;23;20335;-86
2020/12/09 12:22:42;;;;;;;44.92;25.33;;;1.80;99.90;;;;;;6106418;23;20053;-86
2020/12/09 12:25:07;;;;;;;44.83;20.63;;;1.80;99.90;;;;;;6131315;23;20010;-86
2020/12/09 12:27:33;;;;;;;40.10;19.70;;;1.80;99.90;;;;;;6130715;23;19998;-87
2020/12/09 12:29:59;;;;;;;34.80;18.23;;;1.80;99.90;;;;;;6132102;23;20347;-86
2020/12/09 12:32:24;;;;;;;32.03;15.82;;;1.80;99.90;;;;;;6131576;23;20391;-86
2020/12/09 12:34:50;;;;;;;39.88;19.25;;;1.80;99.90;;;;;;6131975;23;20002;-85
2020/12/09 12:37:16;;;;;;;38.28;19.73;;;1.80;99.90;;;;;;6131345;23;20002;-87
2020/12/09 12:39:44;;;;;;;44.83;20.50;;;1.90;99.90;;;;;;6130062;23;20022;-86
2020/12/09 12:42:10;;;;;;;35.20;18.27;;;1.90;99.90;;;;;;6106052;23;20006;-86
2020/12/09 12:44:36;;;;;;;31.17;16.00;;;1.90;99.90;;;;;;6105585;23;20025;-87
2020/12/09 12:47:01;;;;;;;26.27;13.70;;;1.90;99.90;;;;;;6102689;23;20017;-87
2020/12/09 12:49:30;;;;;;;28.10;13.38;;;1.90;99.90;;;;;;6130892;23;20335;-87
2020/12/09 12:51:58;;;;;;;31.10;15.10;;;2.00;99.90;;;;;;6130312;23;20002;-87
2020/12/09 12:54:24;;;;;;;31.45;16.63;;;2.10;99.90;;;;;;6103958;23;20017;-86
2020/12/09 12:56:54;;;;;;;30.75;17.00;;;2.00;99.90;;;;;;6130531;23;20002;-87
2020/12/09 12:59:20;;;;;;;30.05;15.20;;;1.90;99.90;;;;;;6129987;23;20002;-86
2020/12/09 13:01:45;;;;;;;30.02;15.50;;;1.80;99.90;;;;;;6130727;23;20034;-87
2020/12/09 13:04:11;;;;;;;29.13;15.60;;;1.70;99.90;;;;;;6132564;23;20016;-87
2020/12/09 13:06:37;;;;;;;33.85;16.83;;;1.70;99.90;;;;;;6138141;23;19998;-86
2020/12/09 13:09:03;;;;;;;24.33;13.70;;;1.70;99.90;;;;;;6126164;23;20022;-86
2020/12/09 13:11:29;;;;;;;27.40;15.38;;;1.70;99.90;;;;;;6119069;23;20066;-86
2020/12/09 13:13:56;;;;;;;29.83;15.07;;;1.70;99.90;;;;;;6120677;23;20006;-86
2020/12/09 13:16:23;;;;;;;34.30;16.98;;;1.70;99.90;;;;;;6150493;23;19998;-85
2020/12/09 13:18:49;;;;;;;26.42;13.85;;;1.70;99.90;;;;;;6126323;23;19994;-86